Time;durP1;ratioP1;P1;durP2;ratioP2;P2;SDS_P1;SDS_P2;PMS_P1;PMS_P2;Temp;Humidity;BMP_temperature;BMP_pressure;BME280_temperature;BME280_humidity;BME280_pressure;Samples;Min_cycle;Max_cycle;Signal;HPM_P1;HPM_P2
2022/08/23 00:01:13;;;;;;;6.88;4.90;;;18.80;99.90;;;;;;4989512;28;20037;-58
2022/08/23 00:03:41;;;;;;;9.90;4.88;;;18.80;99.90;;;;;;5016946;28;20049;-57
2022/08/23 00:06:07;;;;;;;12.68;4.47;;;18.70;99.90;;;;;;5017215;28;20058;-60
2022/08/23 00:08:34;;;;;;;8.57;4.45;;;18.70;99.90;;;;;;5003532;28;20518;-57
2022/08/23 00:11:00;;;;;;;8.65;4.78;;;18.70;99.90;;;;;;5012857;28;20053;-57
2022/08/23 00:13:27;;;;;;;7.20;4.78;;;18.60;99.90;;;;;;5018837;28;20045;-59
2022/08/23 00:15:52;;;;;;;9.73;4.80;;;18.60;99.90;;;;;;5009981;28;20041;-56
2022/08/23 00:18:19;;;;;;;7.05;4.75;;;18.60;99.90;;;;;;4993244;28;20121;-57
2022/08/23 00:20:46;;;;;;;8.60;5.78;;;18.60;99.90;;;;;;5009091;28;20495;-57
2022/08/23 00:23:11;;;;;;;9.23;5.45;;;18.50;99.90;;;;;;5007277;28;20045;-57
2022/08/23 00:25:37;;;;;;;13.18;6.20;;;18.50;99.90;;;;;;4999008;28;20038;-57
2022/08/23 00:28:03;;;;;;;6.32;3.67;;;18.50;99.90;;;;;;5010677;28;20075;-56
2022/08/23 00:30:30;;;;;;;10.65;6.00;;;18.50;99.90;;;;;;5015578;28;20052;-57
2022/08/23 00:32:56;;;;;;;10.20;5.47;;;18.50;99.90;;;;;;5004451;28;20049;-57
2022/08/23 00:35:22;;;;;;;11.95;6.00;;;18.50;99.90;;;;;;5013655;28;20563;-56
2022/08/23 00:37:48;;;;;;;10.18;7.05;;;18.50;99.90;;;;;;5013885;28;20034;-57
2022/08/23 00:40:16;;;;;;;12.93;7.85;;;18.60;99.90;;;;;;5019495;28;20503;-58
2022/08/23 00:48:47;;;;;;;11.05;7.60;;;18.60;99.90;;;;;;5012455;28;22593;-57
2022/08/23 00:51:20;;;;;;;9.55;7.22;;;18.50;99.90;;;;;;5017467;28;20076;-58
2022/08/23 00:53:50;;;;;;;12.53;8.57;;;18.50;99.90;;;;;;4997469;28;20415;-58
2022/08/23 00:56:19;;;;;;;12.80;8.77;;;18.50;99.90;;;;;;5000942;28;20314;-57
2022/08/23 00:58:45;;;;;;;14.55;10.02;;;18.50;99.90;;;;;;5014679;28;20053;-57
2022/08/23 01:01:12;;;;;;;15.98;11.63;;;18.60;99.90;;;;;;5012060;28;20168;-58
2022/08/23 01:03:42;;;;;;;15.35;9.57;;;18.60;99.90;;;;;;5017298;28;20080;-58
2022/08/23 01:06:23;;;;;;;18.08;11.10;;;18.60;99.90;;;;;;5000220;28;20055;-56
2022/08/23 01:08:56;;;;;;;13.85;8.90;;;18.60;99.90;;;;;;5006919;28;20053;-57
2022/08/23 01:11:27;;;;;;;19.30;10.75;;;18.60;99.90;;;;;;5009824;28;20080;-58
2022/08/23 01:14:15;;;;;;;14.38;9.88;;;18.60;99.90;;;;;;5029701;28;20064;-58
2022/08/23 01:16:44;;;;;;;17.48;10.00;;;18.60;99.90;;;;;;5016088;28;20041;-58
2022/08/23 01:19:23;;;;;;;16.40;12.05;;;18.60;99.90;;;;;;5012927;28;20188;-57
2022/08/23 01:22:12;;;;;;;17.27;11.32;;;18.60;99.90;;;;;;5010783;28;20072;-57
2022/08/23 01:24:39;;;;;;;14.43;11.57;;;18.50;99.90;;;;;;5004731;28;20169;-57
2022/08/23 01:27:06;;;;;;;17.15;11.43;;;18.50;99.90;;;;;;5015225;28;20077;-57
2022/08/23 01:29:31;;;;;;;18.50;13.45;;;18.50;99.90;;;;;;5000557;28;20095;-57
2022/08/23 01:31:58;;;;;;;19.23;12.88;;;18.50;99.90;;;;;;4998483;28;20058;-55
2022/08/23 01:34:26;;;;;;;13.45;11.07;;;18.50;99.90;;;;;;5008023;28;20311;-57
2022/08/23 01:36:53;;;;;;;22.17;13.93;;;18.40;99.90;;;;;;5015421;28;20164;-56
2022/08/23 01:39:19;;;;;;;16.52;11.95;;;18.40;99.90;;;;;;5010603;28;20480;-56
2022/08/23 01:41:45;;;;;;;16.08;11.63;;;18.40;99.90;;;;;;5015865;28;20080;-56
2022/08/23 01:44:10;;;;;;;14.50;10.48;;;18.40;99.90;;;;;;4999741;28;20038;-57
2022/08/23 01:46:36;;;;;;;16.23;11.13;;;18.40;99.90;;;;;;5017927;28;20033;-57
2022/08/23 01:49:05;;;;;;;17.77;12.38;;;18.40;99.90;;;;;;5010232;28;20033;-57
2022/08/23 01:51:32;;;;;;;13.40;10.95;;;18.40;99.90;;;;;;5007560;28;20197;-57
2022/08/23 01:53:58;;;;;;;16.48;11.48;;;18.40;99.90;;;;;;5010804;28;20079;-57
2022/08/23 01:56:24;;;;;;;18.83;12.57;;;18.40;99.90;;;;;;5012991;28;20065;-57
2022/08/23 01:58:49;;;;;;;15.68;12.05;;;18.40;99.90;;;;;;5011516;28;20462;-57
2022/08/23 02:01:16;;;;;;;12.45;10.27;;;18.30;99.90;;;;;;5006512;28;20034;-57
2022/08/23 02:03:43;;;;;;;15.98;11.68;;;18.30;99.90;;;;;;5007506;28;20070;-58
2022/08/23 02:06:09;;;;;;;13.48;10.13;;;18.30;99.90;;;;;;5009623;28;20053;-58
2022/08/23 02:11:21;;;;;;;14.45;12.30;;;18.20;99.90;;;;;;5012986;28;20060;-58
2022/08/23 02:13:48;;;;;;;20.33;14.95;;;18.20;99.90;;;;;;5017980;28;20077;-58
2022/08/23 02:16:23;;;;;;;15.90;10.48;;;18.20;99.90;;;;;;5017271;28;20056;-58
2022/08/23 02:18:49;;;;;;;15.75;12.20;;;18.20;99.90;;;;;;5015868;28;20129;-58
2022/08/23 02:21:15;;;;;;;18.45;11.32;;;18.20;99.90;;;;;;5005252;28;20084;-58
2022/08/23 02:23:41;;;;;;;13.68;11.45;;;18.10;99.90;;;;;;5010225;28;20042;-58
2022/08/23 02:26:06;;;;;;;15.75;12.40;;;18.10;99.90;;;;;;5007309;28;20050;-60
2022/08/23 02:28:32;;;;;;;17.35;13.05;;;18.10;99.90;;;;;;5006641;28;20350;-59
2022/08/23 02:30:58;;;;;;;15.07;13.43;;;18.10;99.90;;;;;;5001067;28;20033;-59
2022/08/23 02:33:24;;;;;;;26.17;15.52;;;18.00;99.90;;;;;;4992415;28;20271;-60
2022/08/23 02:35:50;;;;;;;19.85;14.40;;;17.90;99.90;;;;;;5003390;28;20510;-60
2022/08/23 02:38:17;;;;;;;17.05;11.60;;;17.90;99.90;;;;;;5015845;28;20264;-60
2022/08/23 02:40:43;;;;;;;18.13;13.20;;;17.90;99.90;;;;;;4993751;28;20045;-59
2022/08/23 02:43:09;;;;;;;14.40;11.32;;;17.80;99.90;;;;;;5006033;28;20131;-60
2022/08/23 02:45:35;;;;;;;15.75;11.60;;;17.80;99.90;;;;;;5002531;28;20041;-60
2022/08/23 02:48:01;;;;;;;22.33;12.43;;;17.80;99.90;;;;;;5005708;28;20145;-60
2022/08/23 02:50:27;;;;;;;16.70;11.05;;;17.80;99.90;;;;;;5006851;28;20140;-60
2022/08/23 02:52:53;;;;;;;15.88;11.65;;;17.80;99.90;;;;;;5004188;28;20060;-60
2022/08/23 02:55:20;;;;;;;17.77;12.35;;;17.80;99.90;;;;;;5001950;28;20041;-61
2022/08/23 02:57:46;;;;;;;13.30;10.25;;;17.70;99.90;;;;;;5014333;28;20041;-60
2022/08/23 03:00:13;;;;;;;19.27;13.85;;;17.70;99.90;;;;;;5013933;28;20041;-60
2022/08/23 03:02:39;;;;;;;18.77;13.80;;;17.70;99.90;;;;;;5003240;28;20051;-60
2022/08/23 03:05:07;;;;;;;14.70;11.15;;;17.60;99.90;;;;;;5010089;28;20049;-60
2022/08/23 03:07:33;;;;;;;17.80;12.50;;;17.60;99.90;;;;;;5007838;28;20033;-60
2022/08/23 03:09:58;;;;;;;11.63;9.63;;;17.60;99.90;;;;;;5006979;28;20041;-60
2022/08/23 03:12:25;;;;;;;12.55;11.23;;;17.60;99.90;;;;;;5006146;28;20046;-60
2022/08/23 03:14:51;;;;;;;10.00;7.30;;;17.60;99.90;;;;;;4990466;28;20124;-60
2022/08/23 03:17:18;;;;;;;13.38;10.18;;;17.60;99.90;;;;;;5004209;28;20120;-59
2022/08/23 03:19:44;;;;;;;17.58;11.30;;;17.60;99.90;;;;;;5004908;28;20136;-60
2022/08/23 03:22:10;;;;;;;16.55;11.82;;;17.70;99.90;;;;;;5007389;28;20046;-60
2022/08/23 03:24:36;;;;;;;12.90;10.93;;;17.70;99.90;;;;;;5005895;28;20107;-59
2022/08/23 03:27:03;;;;;;;15.52;12.35;;;17.70;99.90;;;;;;5006357;28;20497;-60
2022/08/23 03:29:28;;;;;;;12.50;9.68;;;17.70;99.90;;;;;;5014103;28;20042;-59
2022/08/23 03:31:54;;;;;;;17.58;13.73;;;17.70;99.90;;;;;;4993140;28;20099;-59
2022/08/23 03:34:20;;;;;;;17.67;12.25;;;17.60;99.90;;;;;;5008661;28;20203;-59
2022/08/23 03:36:46;;;;;;;12.05;9.45;;;17.60;99.90;;;;;;5006793;28;20373;-59
2022/08/23 03:39:13;;;;;;;16.45;11.02;;;17.60;99.90;;;;;;5005796;28;20124;-58
2022/08/23 03:41:39;;;;;;;13.63;10.75;;;17.60;99.90;;;;;;4993584;28;20091;-58
2022/08/23 03:44:04;;;;;;;13.40;9.52;;;17.60;99.90;;;;;;4997464;28;20588;-59
2022/08/23 03:46:31;;;;;;;14.32;11.43;;;17.60;99.90;;;;;;4997490;28;20580;-58
2022/08/23 03:49:00;;;;;;;15.45;11.95;;;17.60;99.90;;;;;;5009715;28;20401;-59
2022/08/23 03:51:28;;;;;;;12.95;10.07;;;17.50;99.90;;;;;;5013163;28;20045;-59
2022/08/23 03:53:53;;;;;;;14.57;10.10;;;17.50;99.90;;;;;;5013287;28;20385;-60
2022/08/23 03:56:36;;;;;;;14.38;10.57;;;17.50;99.90;;;;;;5005746;28;20038;-58
2022/08/23 03:59:06;;;;;;;12.90;11.60;;;17.50;99.90;;;;;;5001199;28;20042;-55
2022/08/23 04:01:31;;;;;;;15.50;13.30;;;17.50;99.90;;;;;;5001385;28;20689;-58
2022/08/23 04:03:58;;;;;;;16.15;12.20;;;17.40;99.90;;;;;;5002055;28;20053;-56
2022/08/23 04:06:28;;;;;;;13.75;11.90;;;17.40;99.90;;;;;;4998585;28;20050;-57
2022/08/23 04:08:55;;;;;;;12.55;11.05;;;17.40;99.90;;;;;;5000933;28;20077;-59
2022/08/23 04:11:22;;;;;;;15.13;11.50;;;17.40;99.90;;;;;;4996994;28;20037;-58
2022/08/23 04:13:47;;;;;;;15.75;11.40;;;17.50;99.90;;;;;;4996284;28;20056;-59
2022/08/23 04:16:13;;;;;;;15.15;11.18;;;17.40;99.90;;;;;;5002171;28;20041;-57
2022/08/23 04:18:39;;;;;;;14.20;11.20;;;17.40;99.90;;;;;;5001116;28;20111;-57
2022/08/23 04:21:09;;;;;;;13.30;11.55;;;17.30;99.90;;;;;;5015813;28;20427;-58
2022/08/23 04:23:36;;;;;;;17.08;12.95;;;17.30;99.90;;;;;;5019409;28;20053;-59
2022/08/23 04:26:04;;;;;;;13.38;11.60;;;17.30;99.90;;;;;;5011977;28;20113;-59
2022/08/23 04:28:32;;;;;;;16.65;12.52;;;17.20;99.90;;;;;;4996225;28;20501;-59
2022/08/23 04:30:59;;;;;;;15.90;12.50;;;17.20;99.90;;;;;;5009998;28;21244;-59
2022/08/23 04:33:31;;;;;;;13.85;11.73;;;17.20;99.90;;;;;;5011054;28;20237;-59
2022/08/23 04:35:57;;;;;;;15.02;11.60;;;17.10;99.90;;;;;;5016135;28;20033;-59
2022/08/23 04:38:23;;;;;;;14.27;12.45;;;17.10;99.90;;;;;;5008603;28;20037;-59
2022/08/23 04:43:43;;;;;;;13.02;11.63;;;17.00;99.90;;;;;;5013666;28;20053;-59
2022/08/23 04:46:09;;;;;;;12.55;9.25;;;17.00;99.90;;;;;;5007301;28;20150;-59
2022/08/23 04:48:35;;;;;;;11.73;10.52;;;17.00;99.90;;;;;;5002671;28;20061;-59
2022/08/23 04:51:01;;;;;;;12.43;11.07;;;17.00;99.90;;;;;;5016829;28;20046;-57
2022/08/23 04:53:33;;;;;;;9.38;7.65;;;17.00;99.90;;;;;;5014115;28;20424;-58
2022/08/23 04:56:01;;;;;;;11.60;10.48;;;17.00;99.90;;;;;;5009346;28;20053;-57
2022/08/23 04:58:28;;;;;;;16.35;12.40;;;17.10;99.90;;;;;;5010378;28;20069;-58
2022/08/23 05:00:58;;;;;;;14.15;12.52;;;17.00;99.90;;;;;;5010309;28;20548;-57
2022/08/23 05:03:24;;;;;;;12.52;11.23;;;17.00;99.90;;;;;;5004081;28;20346;-58
2022/08/23 05:05:52;;;;;;;16.00;12.18;;;16.80;99.90;;;;;;5009071;28;20111;-58
2022/08/23 05:08:18;;;;;;;12.13;10.85;;;16.90;99.90;;;;;;5008071;28;20480;-59
2022/08/23 05:10:44;;;;;;;12.68;10.60;;;16.90;99.90;;;;;;5005569;28;20111;-57
2022/08/23 05:13:10;;;;;;;11.32;8.35;;;16.90;99.90;;;;;;5004509;28;20130;-57
2022/08/23 05:15:35;;;;;;;11.20;10.00;;;17.00;99.90;;;;;;5000546;28;20504;-58
2022/08/23 05:18:01;;;;;;;12.00;8.77;;;17.00;99.90;;;;;;5008391;28;20041;-57
2022/08/23 05:20:27;;;;;;;11.85;9.52;;;16.90;99.90;;;;;;5000122;28;20501;-58
2022/08/23 05:22:53;;;;;;;9.40;7.95;;;16.90;99.90;;;;;;4999946;28;20072;-59
2022/08/23 05:25:20;;;;;;;11.15;9.95;;;17.00;99.90;;;;;;5007167;28;20049;-57
2022/08/23 05:27:46;;;;;;;22.05;13.48;;;17.00;99.90;;;;;;5006694;28;20084;-57
2022/08/23 05:30:12;;;;;;;15.25;12.07;;;17.00;99.90;;;;;;5011561;28;20627;-58
2022/08/23 05:32:38;;;;;;;21.38;16.05;;;17.10;99.90;;;;;;5010009;28;20512;-58
2022/08/23 05:35:04;;;;;;;21.85;15.77;;;17.10;99.90;;;;;;5006396;28;20072;-59
2022/08/23 05:37:30;;;;;;;19.23;15.93;;;17.10;99.90;;;;;;5011534;23;20607;-54
2022/08/23 05:39:55;;;;;;;19.90;15.88;;;17.20;99.90;;;;;;5019070;28;20301;-54
2022/08/23 05:42:21;;;;;;;18.58;15.70;;;17.20;99.90;;;;;;5015006;28;20453;-54
2022/08/23 05:44:47;;;;;;;20.13;18.10;;;17.30;99.90;;;;;;5012091;28;20049;-55
2022/08/23 05:47:15;;;;;;;21.42;17.38;;;17.30;99.90;;;;;;5011523;28;20048;-54
2022/08/23 05:49:41;;;;;;;17.90;16.02;;;17.40;99.90;;;;;;5018090;28;20114;-53
2022/08/23 05:52:10;;;;;;;19.63;15.43;;;17.50;99.90;;;;;;5017376;28;20076;-54
2022/08/23 05:54:36;;;;;;;15.27;11.48;;;17.50;99.90;;;;;;5014960;28;20045;-55
2022/08/23 05:57:02;;;;;;;19.70;16.85;;;17.60;99.90;;;;;;5010925;28;20172;-55
2022/08/23 05:59:29;;;;;;;18.33;16.40;;;17.60;99.90;;;;;;5017587;28;20144;-55
2022/08/23 06:01:56;;;;;;;21.55;18.13;;;17.60;99.90;;;;;;5011281;28;20037;-52
2022/08/23 06:04:22;;;;;;;17.73;14.23;;;17.60;99.90;;;;;;5019464;28;20041;-54
2022/08/23 06:06:48;;;;;;;20.02;17.83;;;17.50;99.90;;;;;;5004287;28;20093;-55
2022/08/23 06:09:16;;;;;;;23.15;18.52;;;17.60;99.90;;;;;;5011544;28;22437;-54
2022/08/23 06:11:44;;;;;;;20.15;17.95;;;17.60;99.90;;;;;;5020521;28;20033;-55
2022/08/23 06:14:10;;;;;;;23.60;17.75;;;17.70;99.90;;;;;;5011220;28;20073;-55
2022/08/23 06:16:39;;;;;;;22.80;18.00;;;17.70;99.90;;;;;;5002355;28;20037;-54
2022/08/23 06:19:07;;;;;;;17.25;14.65;;;17.80;99.90;;;;;;5008707;28;20132;-53
2022/08/23 06:21:34;;;;;;;20.45;16.45;;;17.80;99.90;;;;;;5009864;28;20164;-55
2022/08/23 06:24:00;;;;;;;23.77;16.73;;;17.90;99.90;;;;;;4997359;28;20073;-55
2022/08/23 06:26:32;;;;;;;18.90;15.73;;;18.00;99.90;;;;;;5015698;28;20048;-56
2022/08/23 06:29:04;;;;;;;21.45;16.30;;;18.00;99.90;;;;;;5007882;28;20069;-55
2022/08/23 06:31:45;;;;;;;19.40;15.75;;;18.10;99.90;;;;;;5008315;28;21003;-53
2022/08/23 06:34:24;;;;;;;18.30;16.35;;;18.20;99.90;;;;;;5014344;28;20107;-53
2022/08/23 06:36:55;;;;;;;18.08;15.02;;;18.30;99.90;;;;;;5009480;28;20493;-55
2022/08/23 06:39:23;;;;;;;18.65;13.63;;;18.40;99.90;;;;;;4990517;28;20041;-51
2022/08/23 06:41:49;;;;;;;25.77;16.17;;;18.50;99.90;;;;;;4986605;28;20067;-56
2022/08/23 06:44:17;;;;;;;17.65;15.85;;;18.60;99.90;;;;;;5007178;28;20049;-53
2022/08/23 06:46:43;;;;;;;15.82;13.27;;;18.70;99.90;;;;;;4974476;28;20281;-53
2022/08/23 06:49:09;;;;;;;16.85;15.10;;;18.80;99.90;;;;;;5005828;28;20474;-52
2022/08/23 06:51:43;;;;;;;16.17;14.45;;;18.80;99.90;;;;;;5008630;28;20065;-53
2022/08/23 06:54:12;;;;;;;15.43;13.82;;;19.00;99.90;;;;;;4987997;28;20037;-53
2022/08/23 06:56:40;;;;;;;17.08;13.10;;;19.00;99.90;;;;;;5016351;28;20042;-56
2022/08/23 06:59:07;;;;;;;16.58;13.73;;;19.10;99.90;;;;;;4998915;28;20341;-54
2022/08/23 07:01:38;;;;;;;15.77;14.18;;;19.20;99.90;;;;;;4994613;28;20049;-54
2022/08/23 07:04:06;;;;;;;39.67;26.77;;;19.30;99.90;;;;;;5014570;28;20048;-56
2022/08/23 07:06:33;;;;;;;73.95;67.13;;;19.40;99.90;;;;;;4999965;28;20192;-54
2022/08/23 07:08:58;;;;;;;15.90;14.23;;;19.50;99.90;;;;;;4989133;28;20057;-53
2022/08/23 07:11:26;;;;;;;17.70;13.20;;;19.70;99.90;;;;;;4978667;28;20045;-52
2022/08/23 07:13:52;;;;;;;15.13;11.93;;;19.80;99.90;;;;;;4998215;28;20405;-54
2022/08/23 07:16:18;;;;;;;15.93;11.45;;;19.90;99.90;;;;;;4992869;28;20050;-53
2022/08/23 07:18:48;;;;;;;14.55;10.82;;;20.00;99.90;;;;;;4981497;28;20443;-53
2022/08/23 07:21:14;;;;;;;12.45;9.77;;;20.20;99.90;;;;;;5003547;28;20114;-53
2022/08/23 07:23:42;;;;;;;11.98;9.77;;;20.30;99.90;;;;;;4985403;28;20060;-54
2022/08/23 07:26:13;;;;;;;14.45;10.05;;;20.40;99.90;;;;;;4999010;28;20389;-51
2022/08/23 07:28:40;;;;;;;16.45;9.75;;;20.60;99.90;;;;;;4984639;28;20553;-55
2022/08/23 07:31:19;;;;;;;11.85;9.80;;;20.70;99.90;;;;;;4999814;28;20053;-54
2022/08/23 07:33:46;;;;;;;9.80;8.55;;;20.80;99.90;;;;;;5006087;28;20033;-54
2022/08/23 07:36:15;;;;;;;12.13;8.38;;;20.90;99.90;;;;;;5005227;28;20096;-54
2022/08/23 07:38:42;;;;;;;10.75;7.82;;;21.10;99.90;;;;;;5006869;28;20045;-55
2022/08/23 07:41:07;;;;;;;9.65;8.60;;;21.20;99.90;;;;;;5002430;28;20037;-55
2022/08/23 07:43:34;;;;;;;13.68;8.65;;;21.30;99.90;;;;;;5001499;28;20046;-57
2022/08/23 07:46:00;;;;;;;9.80;8.52;;;21.40;99.90;;;;;;5001434;28;20612;-53
2022/08/23 07:48:26;;;;;;;11.15;8.85;;;21.50;99.90;;;;;;5003539;28;20037;-56
2022/08/23 07:50:58;;;;;;;9.07;7.78;;;21.60;99.90;;;;;;5000000;28;20049;-56
2022/08/23 07:53:24;;;;;;;13.82;8.18;;;21.60;99.90;;;;;;5010498;28;20057;-55
2022/08/23 07:55:51;;;;;;;9.57;8.00;;;21.70;99.90;;;;;;4995717;28;20034;-55
2022/08/23 07:58:17;;;;;;;11.73;7.93;;;21.70;99.90;;;;;;5001646;28;20053;-56
2022/08/23 08:00:43;;;;;;;10.98;8.10;;;21.80;99.90;;;;;;5007876;28;20573;-54
2022/08/23 08:03:10;;;;;;;11.65;8.25;;;21.90;99.90;;;;;;5004743;28;20046;-55
2022/08/23 08:05:36;;;;;;;11.48;7.85;;;22.00;99.90;;;;;;5004505;28;20084;-54
2022/08/23 08:08:03;;;;;;;13.15;7.68;;;22.10;99.90;;;;;;5005106;28;20045;-52
2022/08/23 08:10:29;;;;;;;12.50;6.95;;;22.20;99.90;;;;;;4999421;28;20083;-57
2022/08/23 08:13:04;;;;;;;8.63;6.72;;;22.30;99.90;;;;;;4996890;28;20129;-55
2022/08/23 08:15:40;;;;;;;12.18;6.15;;;22.30;99.90;;;;;;5002823;28;20153;-53
2022/08/23 08:18:09;;;;;;;7.95;6.00;;;22.50;99.90;;;;;;4992979;28;20455;-55
2022/08/23 08:20:40;;;;;;;8.25;6.35;;;22.50;99.90;;;;;;5002730;28;20049;-58
2022/08/23 08:23:24;;;;;;;7.70;5.95;;;22.60;99.90;;;;;;4997703;28;20053;-57
2022/08/23 08:26:04;;;;;;;7.50;5.75;;;22.70;99.90;;;;;;5001193;28;20053;-54
2022/08/23 08:28:31;;;;;;;8.98;5.72;;;22.80;99.90;;;;;;5002216;28;20049;-57
2022/08/23 08:30:57;;;;;;;8.32;5.10;;;22.90;99.90;;;;;;4997632;28;20107;-57
2022/08/23 08:33:27;;;;;;;8.70;5.47;;;23.00;99.90;;;;;;5005595;28;20424;-56
2022/08/23 08:35:53;;;;;;;13.07;5.85;;;23.00;99.90;;;;;;5002970;28;20045;-56
2022/08/23 08:38:19;;;;;;;9.70;5.30;;;23.10;99.90;;;;;;5013084;28;20055;-55
2022/08/23 08:40:52;;;;;;;8.57;4.90;;;23.20;99.90;;;;;;4987470;28;20500;-55
2022/08/23 08:43:24;;;;;;;7.43;4.53;;;23.40;99.90;;;;;;4985017;28;20076;-55
2022/08/23 08:46:04;;;;;;;9.40;5.15;;;23.50;99.90;;;;;;5006376;28;20073;-55
2022/08/23 08:48:39;;;;;;;8.30;3.80;;;23.60;99.90;;;;;;5018382;28;20041;-55
2022/08/23 08:51:46;;;;;;;9.55;5.15;;;23.80;99.90;;;;;;5001752;28;20049;-59
2022/08/23 08:54:16;;;;;;;11.30;5.07;;;23.90;99.80;;;;;;4943635;28;20195;-54
2022/08/23 08:56:45;;;;;;;9.15;4.80;;;23.90;99.60;;;;;;5003931;28;20116;-58
2022/08/23 08:59:18;;;;;;;6.28;4.80;;;24.00;99.60;;;;;;5007170;28;20049;-54
2022/08/23 09:01:43;;;;;;;9.18;4.72;;;24.10;99.40;;;;;;5001032;28;20071;-56
2022/08/23 09:04:10;;;;;;;20.15;5.53;;;24.20;99.30;;;;;;4999874;28;20223;-55
2022/08/23 09:07:11;;;;;;;13.57;6.05;;;24.20;99.50;;;;;;5013008;28;20544;-55
2022/08/23 09:09:37;;;;;;;7.95;4.90;;;24.30;99.00;;;;;;5012935;28;20045;-55
2022/08/23 09:12:30;;;;;;;9.80;4.88;;;24.30;99.20;;;;;;5000318;28;20604;-55
2022/08/23 09:15:19;;;;;;;10.80;5.10;;;24.40;99.20;;;;;;5001230;28;20496;-55
2022/08/23 09:17:45;;;;;;;8.50;4.80;;;24.50;99.10;;;;;;5018369;28;20099;-56
2022/08/23 09:20:18;;;;;;;7.13;5.13;;;24.60;99.30;;;;;;5012339;28;20883;-58
2022/08/23 09:22:50;;;;;;;8.07;5.07;;;24.60;99.00;;;;;;5016888;28;20095;-58
2022/08/23 09:25:17;;;;;;;8.38;4.55;;;24.70;98.80;;;;;;5006026;28;20127;-55
2022/08/23 09:27:44;;;;;;;14.32;6.00;;;24.70;98.70;;;;;;5003383;28;20439;-55
2022/08/23 09:30:13;;;;;;;5.50;4.32;;;24.60;98.40;;;;;;4988851;28;20047;-54
2022/08/23 09:32:47;;;;;;;10.63;5.40;;;24.70;98.70;;;;;;5012467;28;20121;-58
2022/08/23 09:35:16;;;;;;;;;;;24.80;98.90;;;;;;5005182;28;20088;-55
2022/08/23 09:38:05;;;;;;;10.90;9.43;;;24.80;98.60;;;;;;5013011;28;19918;-55
2022/08/23 09:40:38;;;;;;;8.32;5.68;;;24.80;98.70;;;;;;5014862;28;20046;-56
2022/08/23 09:43:12;;;;;;;7.53;4.97;;;24.90;99.20;;;;;;5014580;28;20033;-54
2022/08/23 09:45:46;;;;;;;8.13;5.28;;;24.90;99.10;;;;;;5011328;28;20049;-55
2022/08/23 09:48:14;;;;;;;8.63;5.38;;;25.00;99.20;;;;;;5008624;28;20471;-54
2022/08/23 09:50:53;;;;;;;8.57;5.35;;;25.10;99.00;;;;;;5012296;28;20048;-58
2022/08/23 09:53:26;;;;;;;8.23;4.95;;;25.20;98.70;;;;;;4998520;28;20480;-52
2022/08/23 09:55:57;;;;;;;8.07;5.05;;;25.40;98.50;;;;;;5014809;28;20037;-56
2022/08/23 09:58:34;;;;;;;7.93;5.20;;;25.50;98.20;;;;;;5016790;28;20033;-56
2022/08/23 10:01:29;;;;;;;6.70;4.85;;;25.60;97.60;;;;;;5008659;28;20045;-58
2022/08/23 10:04:20;;;;;;;6.15;4.22;;;25.70;97.60;;;;;;5007649;28;20037;-56
2022/08/23 10:06:45;;;;;;;8.60;5.15;;;25.80;97.30;;;;;;5010349;28;20049;-55
2022/08/23 10:09:32;;;;;;;8.07;5.63;;;25.90;96.90;;;;;;5018312;28;20457;-56
2022/08/23 10:11:59;;;;;;;7.00;5.10;;;26.10;96.40;;;;;;5018787;28;20429;-56
2022/08/23 10:14:28;;;;;;;10.07;5.95;;;26.10;97.00;;;;;;5015390;28;20096;-58
2022/08/23 10:17:06;;;;;;;8.57;5.20;;;26.20;96.80;;;;;;5023520;28;20489;-51
2022/08/23 10:20:01;;;;;;;8.60;5.65;;;26.30;96.80;;;;;;5015210;28;20323;-53
2022/08/23 10:22:27;;;;;;;8.25;4.93;;;26.40;96.60;;;;;;5011960;28;20052;-55
2022/08/23 10:25:04;;;;;;;8.30;5.18;;;26.50;96.70;;;;;;5013068;28;20073;-59
2022/08/23 10:30:41;;;;;;;10.63;5.43;;;26.80;95.30;;;;;;5017668;28;20042;-57
2022/08/23 10:33:36;;;;;;;17.45;4.78;;;26.80;95.00;;;;;;4998408;28;20056;-56
2022/08/23 10:36:10;;;;;;;39.90;6.75;;;26.80;95.30;;;;;;5012975;28;20037;-58
2022/08/23 10:38:56;;;;;;;13.80;4.95;;;27.00;95.50;;;;;;5013365;28;20088;-56
2022/08/23 10:41:49;;;;;;;55.35;11.00;;;27.10;95.00;;;;;;5011446;28;20496;-58
2022/08/23 10:44:58;;;;;;;13.38;4.38;;;27.20;94.20;;;;;;5011818;28;20084;-55
2022/08/23 10:47:41;;;;;;;21.55;4.57;;;27.40;94.10;;;;;;5018260;28;20095;-57
2022/08/23 10:50:11;;;;;;;11.70;4.43;;;27.50;93.70;;;;;;4999886;28;20128;-56
2022/08/23 10:52:51;;;;;;;6.28;3.80;;;27.60;93.10;;;;;;4996730;28;20042;-58
2022/08/23 10:55:34;;;;;;;7.75;3.33;;;27.70;92.70;;;;;;5005650;28;20065;-54
2022/08/23 10:58:05;;;;;;;18.77;4.53;;;27.70;92.80;;;;;;5005631;28;20049;-56
2022/08/23 11:00:34;;;;;;;5.53;3.63;;;27.90;92.20;;;;;;5008778;28;20052;-59
2022/08/23 11:03:28;;;;;;;9.23;3.45;;;28.00;92.10;;;;;;5010417;28;20508;-54
2022/08/23 11:06:28;;;;;;;15.35;4.10;;;28.10;91.80;;;;;;5012147;28;20244;-55
2022/08/23 11:08:59;;;;;;;7.65;3.17;;;28.30;91.70;;;;;;5011079;28;20042;-56
2022/08/23 11:11:37;;;;;;;7.45;4.25;;;28.30;91.60;;;;;;4995212;28;20103;-54
2022/08/23 11:14:03;;;;;;;1999.90;699.28;;;28.40;90.60;;;;;;5007459;28;20068;-57
2022/08/23 11:16:30;;;;;;;124.47;20.92;;;28.50;90.90;;;;;;5013330;28;20036;-58
2022/08/23 11:18:57;;;;;;;29.48;6.13;;;28.60;90.80;;;;;;4998570;28;20335;-56
2022/08/23 11:21:29;;;;;;;19.88;4.68;;;28.70;90.30;;;;;;5014703;28;20045;-55
2022/08/23 11:23:58;;;;;;;20.93;4.30;;;28.70;89.50;;;;;;5001580;28;20116;-56
2022/08/23 11:26:27;;;;;;;7.20;2.83;;;28.70;88.70;;;;;;5005378;28;20304;-61
2022/08/23 11:29:04;;;;;;;10.90;3.67;;;28.80;88.10;;;;;;5000995;28;20053;-55
2022/08/23 11:31:39;;;;;;;18.77;3.55;;;29.00;87.90;;;;;;4985556;28;20123;-56
2022/08/23 11:34:19;;;;;;;10.35;3.03;;;29.10;88.20;;;;;;5016593;28;20050;-56
2022/08/23 11:39:23;;;;;;;12.82;3.75;;;29.40;85.70;;;;;;5006275;28;20064;-66
2022/08/23 11:41:55;;;;;;;14.20;3.20;;;29.50;85.20;;;;;;4997172;28;20480;-62
2022/08/23 11:44:47;;;;;;;10.93;3.38;;;29.60;85.20;;;;;;5004415;28;20045;-62
2022/08/23 11:47:14;;;;;;;6.65;2.80;;;29.80;84.70;;;;;;4995167;28;20153;-65
2022/08/23 11:50:05;;;;;;;9.00;2.80;;;29.90;83.50;;;;;;5014109;28;20041;-60
2022/08/23 11:52:55;;;;;;;55.03;6.63;;;29.90;82.90;;;;;;4998525;28;20046;-61
2022/08/23 11:55:24;;;;;;;38.80;4.72;;;30.00;80.90;;;;;;5023652;28;20045;-62
2022/08/23 11:58:28;;;;;;;8.55;2.65;;;30.10;81.70;;;;;;5013233;28;20034;-67
2022/08/23 12:01:07;;;;;;;6.03;2.63;;;30.10;80.50;;;;;;5007643;28;20042;-66
